createdAt,value
2022-12-31T00:00:28.090Z,84.20
2022-12-31T00:03:00.474Z,84.26
2022-12-31T00:05:36.421Z,84.16
2022-12-31T00:08:08.346Z,84.19
2022-12-31T00:10:41.914Z,84.41
2022-12-31T00:13:14.678Z,84.27
2022-12-31T00:15:46.881Z,84.40
2022-12-31T00:18:18.873Z,84.46
2022-12-31T00:20:50.772Z,84.40
2022-12-31T00:23:22.813Z,84.12
2022-12-31T00:25:55.079Z,84.05
2022-12-31T00:28:27.107Z,84.12
2022-12-31T00:31:00.929Z,84.14
2022-12-31T00:33:32.874Z,84.08
2022-12-31T00:36:20.068Z,84.18
2022-12-31T00:38:53.363Z,84.12
2022-12-31T00:41:26.771Z,84.08
2022-12-31T00:43:59.038Z,84.09
2022-12-31T00:46:32.079Z,84.08
2022-12-31T00:49:04.282Z,83.94
2022-12-31T00:51:36.677Z,83.82
2022-12-31T00:54:09.500Z,83.74
2022-12-31T00:56:41.515Z,83.60
2022-12-31T00:59:13.402Z,83.59
2022-12-31T01:01:45.657Z,83.61
2022-12-31T01:04:22.341Z,83.45
2022-12-31T01:06:54.323Z,83.38
2022-12-31T01:09:26.412Z,83.45
2022-12-31T01:11:58.551Z,83.33
2022-12-31T01:14:32.112Z,83.30
2022-12-31T01:17:04.276Z,83.37
2022-12-31T01:19:36.248Z,83.45
2022-12-31T01:22:08.304Z,83.40
2022-12-31T01:24:40.424Z,83.49
2022-12-31T01:27:12.489Z,83.40
2022-12-31T01:29:44.435Z,83.25
2022-12-31T01:32:16.439Z,83.22
2022-12-31T01:34:49.409Z,83.23
2022-12-31T01:37:21.243Z,83.10
2022-12-31T01:39:53.226Z,82.90
2022-12-31T01:42:25.137Z,82.92
2022-12-31T01:44:57.625Z,82.76
2022-12-31T01:47:38.228Z,82.74
2022-12-31T01:50:13.167Z,82.80
2022-12-31T01:52:48.156Z,82.82
2022-12-31T01:55:23.211Z,82.92
2022-12-31T01:58:00.887Z,82.94
2022-12-31T02:00:33.913Z,82.85
2022-12-31T02:03:08.870Z,82.94
2022-12-31T02:05:52.509Z,82.92
2022-12-31T02:08:24.435Z,82.82
2022-12-31T02:10:56.357Z,82.94
2022-12-31T02:13:28.243Z,83.13
2022-12-31T02:16:11.961Z,83.23
2022-12-31T02:18:46.907Z,82.72
2022-12-31T02:21:33.825Z,82.69
2022-12-31T02:24:29.716Z,82.51
2022-12-31T02:27:04.569Z,82.49
2022-12-31T02:29:55.746Z,82.80
2022-12-31T02:32:39.196Z,83.02
2022-12-31T02:35:14.030Z,83.20
2022-12-31T02:37:49.402Z,82.91
2022-12-31T02:40:23.841Z,82.79
2022-12-31T02:42:55.984Z,82.95
2022-12-31T02:45:39.897Z,83.24
2022-12-31T02:48:29.723Z,83.18
2022-12-31T02:51:13.548Z,83.01
2022-12-31T02:54:21.204Z,82.99
2022-12-31T02:57:27.501Z,82.86
2022-12-31T03:00:22.912Z,83.06
2022-12-31T03:02:56.340Z,82.83
2022-12-31T03:05:31.377Z,82.68
2022-12-31T03:08:03.356Z,82.66
2022-12-31T03:10:36.007Z,82.60
2022-12-31T03:13:08.157Z,82.70
2022-12-31T03:15:40.219Z,82.97
2022-12-31T03:18:18.386Z,82.86
2022-12-31T03:21:09.944Z,82.73
2022-12-31T03:23:46.329Z,82.95
2022-12-31T03:26:18.268Z,83.06
2022-12-31T03:28:50.307Z,83.02
2022-12-31T03:31:22.335Z,82.77
2022-12-31T03:33:54.530Z,82.65
2022-12-31T03:36:26.793Z,82.97
2022-12-31T03:38:58.812Z,83.26
2022-12-31T03:41:31.222Z,83.43
2022-12-31T03:44:03.085Z,83.70
2022-12-31T03:46:35.416Z,83.57
2022-12-31T03:49:07.352Z,83.70
2022-12-31T03:51:39.522Z,83.56
2022-12-31T03:54:11.487Z,83.51
2022-12-31T03:56:43.542Z,83.23
2022-12-31T03:59:15.586Z,82.80
2022-12-31T04:01:47.922Z,82.74
2022-12-31T04:04:20.260Z,82.86
2022-12-31T04:06:52.517Z,82.93
2022-12-31T04:09:24.720Z,83.13
2022-12-31T04:11:56.933Z,83.31
2022-12-31T04:14:29.080Z,83.10
2022-12-31T04:17:01.254Z,83.13
2022-12-31T04:19:33.431Z,83.11
2022-12-31T04:22:06.039Z,83.53
2022-12-31T04:24:38.124Z,83.95
2022-12-31T04:27:10.300Z,84.16
2022-12-31T04:29:42.550Z,83.87
2022-12-31T04:32:14.606Z,83.83
2022-12-31T04:34:46.595Z,83.78
2022-12-31T04:37:18.529Z,83.59
2022-12-31T04:39:50.584Z,83.37
2022-12-31T04:42:22.727Z,83.40
2022-12-31T04:44:54.671Z,83.66
2022-12-31T04:47:26.777Z,83.80
2022-12-31T04:49:59.001Z,83.62
2022-12-31T04:52:35.756Z,83.48
2022-12-31T04:55:06.993Z,83.51
2022-12-31T04:57:39.008Z,83.57
2022-12-31T05:00:11.738Z,83.42
2022-12-31T05:02:44.190Z,83.46
2022-12-31T05:05:16.326Z,83.46
2022-12-31T05:07:48.233Z,83.56
2022-12-31T05:10:20.227Z,83.34
2022-12-31T05:12:52.436Z,83.52
2022-12-31T05:15:24.410Z,83.26
2022-12-31T05:17:56.426Z,83.08
2022-12-31T05:20:28.549Z,83.05
2022-12-31T05:23:00.513Z,82.89
2022-12-31T05:25:32.868Z,82.65
2022-12-31T05:28:05.129Z,82.92
2022-12-31T05:30:37.429Z,82.86
2022-12-31T05:33:09.724Z,82.73
2022-12-31T05:35:41.721Z,82.68
2022-12-31T05:38:13.795Z,82.58
2022-12-31T05:40:45.723Z,83.04
2022-12-31T05:43:18.384Z,82.62
2022-12-31T05:45:50.692Z,82.67
2022-12-31T05:48:22.929Z,82.68
2022-12-31T05:50:54.895Z,82.58
2022-12-31T05:53:26.792Z,82.48
2022-12-31T05:55:58.707Z,82.39
2022-12-31T05:58:30.758Z,82.30
2022-12-31T06:01:02.800Z,82.53
2022-12-31T06:03:35.735Z,82.72
2022-12-31T06:06:09.347Z,82.61
2022-12-31T06:08:41.453Z,82.61
2022-12-31T06:11:13.276Z,82.68
2022-12-31T06:13:45.395Z,82.63
2022-12-31T06:16:17.321Z,82.71
2022-12-31T06:18:50.839Z,82.70
2022-12-31T06:21:23.350Z,82.62
2022-12-31T06:23:55.339Z,82.92
2022-12-31T06:26:29.560Z,82.90
2022-12-31T06:29:01.385Z,82.92
2022-12-31T06:31:33.617Z,82.71
2022-12-31T06:34:06.027Z,82.88
2022-12-31T06:36:38.093Z,82.76
2022-12-31T06:39:09.968Z,82.91
2022-12-31T06:41:42.040Z,82.83
2022-12-31T06:44:15.070Z,82.62
2022-12-31T06:46:47.152Z,82.56
2022-12-31T06:49:20.424Z,82.81
2022-12-31T06:51:52.410Z,82.42
2022-12-31T06:54:24.373Z,82.25
2022-12-31T06:56:56.824Z,82.25
2022-12-31T06:59:30.729Z,82.23
2022-12-31T07:02:21.986Z,82.14
2022-12-31T07:05:06.633Z,82.29
2022-12-31T07:07:44.440Z,82.20
2022-12-31T07:10:39.884Z,82.59
2022-12-31T07:13:36.239Z,82.71
2022-12-31T07:16:13.810Z,82.12
2022-12-31T07:18:51.787Z,82.12
2022-12-31T07:21:26.658Z,82.42
2022-12-31T07:23:58.899Z,82.36
2022-12-31T07:26:56.806Z,82.23
2022-12-31T07:29:41.556Z,82.31
2022-12-31T07:32:50.880Z,81.78
2022-12-31T07:35:44.831Z,81.76
2022-12-31T07:38:38.039Z,81.82
2022-12-31T07:41:38.144Z,81.65
2022-12-31T07:44:19.085Z,81.62
2022-12-31T07:47:00.109Z,81.93
2022-12-31T07:49:32.562Z,81.78
2022-12-31T07:52:04.816Z,81.63
2022-12-31T07:54:36.924Z,81.36
2022-12-31T07:57:10.147Z,81.50
2022-12-31T08:00:09.391Z,81.87
2022-12-31T08:02:55.356Z,81.61
2022-12-31T08:05:45.357Z,81.53
2022-12-31T08:08:36.731Z,81.44
2022-12-31T08:11:23.520Z,80.99
2022-12-31T08:13:56.987Z,81.23
2022-12-31T08:16:29.156Z,81.37
2022-12-31T08:19:01.466Z,81.38
2022-12-31T08:21:42.077Z,81.78
2022-12-31T08:24:40.483Z,81.26
2022-12-31T08:27:40.698Z,81.12
2022-12-31T08:30:15.622Z,81.17
2022-12-31T08:33:07.086Z,80.40
2022-12-31T08:35:53.427Z,80.56
2022-12-31T08:38:53.667Z,80.08
2022-12-31T08:41:29.622Z,80.43
2022-12-31T08:44:04.426Z,80.29
2022-12-31T08:46:40.691Z,80.41
2022-12-31T08:49:15.448Z,79.76
2022-12-31T08:51:48.502Z,80.33
2022-12-31T08:54:21.124Z,80.61
2022-12-31T08:57:12.327Z,80.27
2022-12-31T09:00:12.474Z,80.66
2022-12-31T09:03:08.454Z,81.22
2022-12-31T09:05:57.483Z,81.10
2022-12-31T09:09:03.917Z,81.06
2022-12-31T09:11:50.940Z,80.75
2022-12-31T09:14:47.741Z,80.78
2022-12-31T09:17:47.610Z,80.87
2022-12-31T09:20:26.142Z,80.94
2022-12-31T09:22:59.614Z,80.62
2022-12-31T09:25:32.165Z,81.07
2022-12-31T09:28:12.854Z,80.62
2022-12-31T09:30:50.608Z,80.75
2022-12-31T09:33:54.027Z,80.77
2022-12-31T09:36:29.235Z,80.78
2022-12-31T09:39:15.285Z,79.85
2022-12-31T09:41:56.515Z,80.31
2022-12-31T09:44:51.947Z,80.36
2022-12-31T09:47:46.106Z,80.48
2022-12-31T09:50:23.626Z,80.46
2022-12-31T09:53:01.392Z,80.16
2022-12-31T09:55:48.238Z,80.43
2022-12-31T09:58:31.696Z,80.53
2022-12-31T10:01:19.166Z,80.17
2022-12-31T10:03:54.077Z,80.16
2022-12-31T10:06:29.280Z,79.68
2022-12-31T10:09:20.523Z,78.77
2022-12-31T10:12:04.468Z,78.39
2022-12-31T10:14:48.331Z,77.84
2022-12-31T10:17:37.848Z,78.22
2022-12-31T10:20:45.289Z,78.30
2022-12-31T10:23:20.286Z,78.61
2022-12-31T10:26:05.017Z,78.05
2022-12-31T10:28:48.737Z,78.61
2022-12-31T10:31:40.261Z,79.19
2022-12-31T10:34:18.261Z,79.07
2022-12-31T10:37:05.745Z,79.14
2022-12-31T10:39:46.483Z,79.62
2022-12-31T10:42:27.440Z,79.51
2022-12-31T10:45:05.543Z,79.99
2022-12-31T10:48:15.363Z,80.39
2022-12-31T10:50:56.477Z,80.08
2022-12-31T10:53:43.860Z,79.95
2022-12-31T10:56:24.991Z,80.30
2022-12-31T10:59:16.064Z,80.09
2022-12-31T11:02:25.986Z,80.30
2022-12-31T11:05:17.518Z,79.93
2022-12-31T11:08:04.641Z,78.99
2022-12-31T11:11:08.466Z,78.96
2022-12-31T11:14:12.132Z,78.85
2022-12-31T11:16:59.575Z,79.15
2022-12-31T11:20:06.239Z,78.59
2022-12-31T11:22:46.632Z,77.78
2022-12-31T11:25:24.397Z,77.44
2022-12-31T11:28:11.417Z,78.50
2022-12-31T11:31:01.326Z,78.08
2022-12-31T11:34:03.005Z,78.43
2022-12-31T11:36:55.902Z,78.12
2022-12-31T11:39:42.774Z,76.93
2022-12-31T11:42:20.680Z,77.29
2022-12-31T11:45:13.559Z,77.01
2022-12-31T11:48:29.578Z,77.24
2022-12-31T11:50:55.263Z,76.94
2022-12-31T11:53:45.244Z,76.97
2022-12-31T11:56:23.232Z,76.87
2022-12-31T11:58:57.460Z,76.50
2022-12-31T12:01:48.578Z,76.30
2022-12-31T12:04:20.707Z,77.00
2022-12-31T12:06:53.601Z,78.28
2022-12-31T12:09:33.531Z,77.73
2022-12-31T12:12:07.094Z,78.51
2022-12-31T12:14:42.049Z,78.95
2022-12-31T12:17:20.135Z,78.39
2022-12-31T12:19:56.755Z,78.56
2022-12-31T12:22:31.116Z,78.09
2022-12-31T12:25:08.870Z,78.20
2022-12-31T12:27:40.839Z,78.09
2022-12-31T12:30:28.707Z,77.81
2022-12-31T12:33:04.997Z,78.62
2022-12-31T12:35:39.684Z,78.06
2022-12-31T12:38:17.655Z,77.05
2022-12-31T12:41:00.962Z,75.83
2022-12-31T12:43:36.395Z,76.18
2022-12-31T12:46:11.060Z,75.42
2022-12-31T12:48:45.199Z,75.76
2022-12-31T12:51:28.846Z,76.00
2022-12-31T12:54:15.350Z,76.37
2022-12-31T12:56:58.959Z,75.97
2022-12-31T12:59:48.886Z,75.89
2022-12-31T13:02:42.978Z,75.87
2022-12-31T13:05:35.801Z,75.24
2022-12-31T13:08:19.431Z,75.74
2022-12-31T13:11:25.478Z,75.83
2022-12-31T13:14:18.178Z,76.19
2022-12-31T13:17:15.519Z,75.97
2022-12-31T13:20:02.251Z,76.21
2022-12-31T13:22:43.332Z,76.63
2022-12-31T13:25:24.128Z,76.95
2022-12-31T13:27:59.055Z,76.68
2022-12-31T13:30:33.929Z,76.31
2022-12-31T13:33:08.958Z,76.59
2022-12-31T13:35:49.604Z,76.37
2022-12-31T13:38:28.701Z,76.67
2022-12-31T13:41:03.623Z,77.09
2022-12-31T13:44:11.211Z,76.95
2022-12-31T13:46:55.519Z,76.79
2022-12-31T13:49:39.045Z,76.63
2022-12-31T13:52:30.212Z,76.39
2022-12-31T13:55:20.032Z,75.87
2022-12-31T13:58:00.965Z,76.29
2022-12-31T14:00:44.507Z,75.32
2022-12-31T14:03:31.267Z,75.87
2022-12-31T14:06:31.591Z,76.45
2022-12-31T14:09:05.769Z,76.83
2022-12-31T14:11:46.184Z,76.87
2022-12-31T14:14:23.862Z,77.00
2022-12-31T14:16:58.712Z,76.59
2022-12-31T14:19:42.979Z,76.55
2022-12-31T14:22:26.789Z,76.41
2022-12-31T14:25:01.674Z,76.72
2022-12-31T14:27:42.297Z,76.80
2022-12-31T14:30:24.165Z,77.00
2022-12-31T14:33:20.058Z,76.93
2022-12-31T14:35:58.013Z,76.23
2022-12-31T14:38:32.858Z,75.97
2022-12-31T14:41:40.747Z,76.30
2022-12-31T14:44:36.221Z,76.40
2022-12-31T14:47:42.622Z,76.30
2022-12-31T14:50:20.201Z,76.13
2022-12-31T14:52:58.250Z,76.20
2022-12-31T14:55:38.636Z,76.31
2022-12-31T14:58:36.074Z,76.37
2022-12-31T15:01:21.620Z,76.42
2022-12-31T15:03:56.936Z,76.41
2022-12-31T15:06:37.467Z,76.06
2022-12-31T15:09:31.836Z,75.95
2022-12-31T15:12:39.412Z,75.67
2022-12-31T15:15:33.649Z,75.65
2022-12-31T15:18:14.434Z,75.47
2022-12-31T15:20:52.277Z,75.16
2022-12-31T15:23:36.459Z,75.25
2022-12-31T15:26:11.579Z,75.19
2022-12-31T15:28:43.708Z,75.21
2022-12-31T15:31:20.984Z,75.31
2022-12-31T15:33:58.860Z,75.62
2022-12-31T15:36:38.803Z,75.91
2022-12-31T15:39:17.104Z,75.76
2022-12-31T15:44:43.683Z,75.40
2022-12-31T15:47:33.461Z,75.34
2022-12-31T15:50:08.690Z,75.39
2022-12-31T15:52:52.403Z,75.37
2022-12-31T15:55:45.544Z,75.19
2022-12-31T15:58:20.397Z,75.09
2022-12-31T16:01:13.384Z,74.85
2022-12-31T16:03:57.433Z,75.02
2022-12-31T16:06:35.314Z,75.19
2022-12-31T16:09:13.140Z,75.01
2022-12-31T16:11:45.471Z,75.30
2022-12-31T16:14:23.472Z,75.59
2022-12-31T16:16:58.467Z,75.54
2022-12-31T16:19:35.867Z,75.64
2022-12-31T16:22:10.659Z,75.93
2022-12-31T16:25:19.606Z,75.95
2022-12-31T16:27:18.251Z,75.93
2022-12-31T16:29:56.002Z,75.91
2022-12-31T16:32:27.413Z,75.81
2022-12-31T16:34:59.645Z,76.12
2022-12-31T16:37:33.274Z,76.23
2022-12-31T16:40:19.912Z,76.20
2022-12-31T16:42:53.318Z,76.35
2022-12-31T16:45:38.807Z,76.46
2022-12-31T16:48:21.609Z,76.37
2022-12-31T16:50:56.569Z,76.45
2022-12-31T16:53:30.616Z,76.53
2022-12-31T16:56:05.610Z,76.66
2022-12-31T16:58:43.351Z,76.81
2022-12-31T17:01:21.156Z,77.05
2022-12-31T17:03:56.156Z,77.01
2022-12-31T17:06:33.067Z,77.00
2022-12-31T17:09:22.435Z,76.88
2022-12-31T17:11:56.822Z,77.10
2022-12-31T17:14:30.582Z,76.96
2022-12-31T17:17:09.657Z,77.15
2022-12-31T17:19:50.392Z,76.41
2022-12-31T17:22:36.515Z,76.31
2022-12-31T17:25:11.311Z,75.69
2022-12-31T17:27:46.160Z,75.40
2022-12-31T17:30:23.371Z,74.78
2022-12-31T17:33:03.106Z,74.85
2022-12-31T17:35:45.676Z,74.69
2022-12-31T17:38:26.721Z,74.73
2022-12-31T17:41:10.248Z,74.43
2022-12-31T17:43:43.512Z,74.74
2022-12-31T17:46:17.832Z,74.90
2022-12-31T17:48:50.351Z,75.17
2022-12-31T17:51:24.319Z,75.10
2022-12-31T17:53:55.662Z,74.70
2022-12-31T17:56:27.687Z,75.04
2022-12-31T17:59:00.563Z,75.40
2022-12-31T18:01:32.739Z,75.77
2022-12-31T18:04:04.856Z,76.26
2022-12-31T18:06:36.844Z,76.75
2022-12-31T18:09:08.886Z,77.06
2022-12-31T18:11:42.269Z,77.03
2022-12-31T18:14:16.820Z,77.08
2022-12-31T18:16:49.411Z,77.05
2022-12-31T18:19:54.356Z,76.93
2022-12-31T18:21:56.752Z,76.93
2022-12-31T18:24:28.743Z,77.07
2022-12-31T18:27:00.680Z,77.20
2022-12-31T18:29:32.657Z,77.41
2022-12-31T18:32:05.006Z,77.63
2022-12-31T18:34:37.055Z,77.79
2022-12-31T18:37:21.472Z,78.10
2022-12-31T18:39:49.535Z,78.28
2022-12-31T18:42:23.644Z,78.48
2022-12-31T18:44:56.002Z,78.54
2022-12-31T18:47:31.422Z,78.39
2022-12-31T18:50:01.755Z,78.44
2022-12-31T18:52:33.903Z,78.44
2022-12-31T18:55:11.588Z,78.43
2022-12-31T18:57:43.615Z,78.31
2022-12-31T19:00:16.440Z,78.26
2022-12-31T19:02:48.752Z,78.51
2022-12-31T19:05:26.583Z,78.53
2022-12-31T19:07:58.788Z,78.33
2022-12-31T19:10:31.028Z,78.04
2022-12-31T19:13:03.145Z,77.99
2022-12-31T19:15:47.245Z,77.73
2022-12-31T19:18:26.876Z,77.64
2022-12-31T19:20:59.048Z,77.54
2022-12-31T19:23:31.321Z,77.45
2022-12-31T19:26:03.536Z,77.36
2022-12-31T19:28:35.692Z,77.05
2022-12-31T19:31:07.667Z,76.54
2022-12-31T19:33:39.636Z,76.66
2022-12-31T19:36:20.093Z,77.03
2022-12-31T19:38:52.339Z,77.16
2022-12-31T19:41:24.368Z,77.29
2022-12-31T19:43:56.307Z,77.12
2022-12-31T19:46:28.397Z,77.15
2022-12-31T19:49:00.409Z,77.31
2022-12-31T19:51:32.349Z,77.62
2022-12-31T19:54:04.495Z,77.83
2022-12-31T19:56:36.590Z,78.13
2022-12-31T19:59:10.751Z,78.38
2022-12-31T20:01:43.168Z,78.52
2022-12-31T20:04:15.200Z,78.67
2022-12-31T20:06:47.100Z,78.79
2022-12-31T20:09:19.153Z,79.23
2022-12-31T20:11:51.008Z,79.21
2022-12-31T20:14:22.951Z,79.09
2022-12-31T20:16:56.166Z,78.72
2022-12-31T20:19:28.314Z,78.75
2022-12-31T20:22:00.515Z,78.22
2022-12-31T20:24:32.539Z,77.88
2022-12-31T20:27:04.820Z,77.63
2022-12-31T20:29:37.459Z,77.19
2022-12-31T20:32:09.493Z,77.21
2022-12-31T20:34:41.400Z,77.02
2022-12-31T20:37:13.401Z,77.32
2022-12-31T20:39:45.261Z,77.52
2022-12-31T20:42:17.175Z,77.69
2022-12-31T20:44:49.088Z,77.75
2022-12-31T20:47:21.883Z,77.67
2022-12-31T20:50:11.194Z,77.53
2022-12-31T20:52:27.428Z,77.49
2022-12-31T20:54:59.371Z,77.26
2022-12-31T20:57:34.038Z,77.40
2022-12-31T21:00:06.673Z,77.43
2022-12-31T21:02:43.243Z,77.49
2022-12-31T21:05:12.652Z,77.46
2022-12-31T21:07:44.665Z,77.20
2022-12-31T21:10:17.135Z,77.11
2022-12-31T21:12:50.713Z,76.93
2022-12-31T21:15:22.746Z,76.99
2022-12-31T21:17:54.918Z,76.98
2022-12-31T21:20:27.516Z,76.80
2022-12-31T21:22:59.412Z,76.64
2022-12-31T21:25:31.262Z,76.45
2022-12-31T21:28:03.141Z,76.58
2022-12-31T21:30:35.121Z,76.81
2022-12-31T21:33:07.647Z,76.92
2022-12-31T21:35:44.446Z,76.93
2022-12-31T21:38:13.152Z,77.10
2022-12-31T21:40:48.014Z,76.85
2022-12-31T21:43:20.231Z,77.04
2022-12-31T21:46:06.699Z,77.26
2022-12-31T21:48:38.636Z,77.31
2022-12-31T21:51:14.170Z,77.26
2022-12-31T21:53:46.130Z,77.18
2022-12-31T21:56:19.042Z,77.22
2022-12-31T21:59:14.142Z,77.45
2022-12-31T22:02:04.509Z,77.49
2022-12-31T22:05:01.544Z,77.58
2022-12-31T22:07:10.688Z,77.18
2022-12-31T22:09:42.578Z,77.22
2022-12-31T22:12:14.612Z,77.40
2022-12-31T22:15:15.878Z,77.37
2022-12-31T22:17:20.509Z,77.48
2022-12-31T22:20:25.391Z,77.43
2022-12-31T22:22:26.239Z,77.53
2022-12-31T22:24:59.369Z,77.48
2022-12-31T22:27:31.619Z,77.51
2022-12-31T22:30:03.731Z,77.48
2022-12-31T22:32:35.690Z,77.30
2022-12-31T22:35:08.145Z,77.28
2022-12-31T22:37:57.112Z,77.13
2022-12-31T22:42:38.241Z,77.13
2022-12-31T22:45:11.094Z,77.29
2022-12-31T22:47:43.239Z,77.13
2022-12-31T22:50:15.300Z,77.12
2022-12-31T22:52:47.396Z,76.94
2022-12-31T22:55:19.428Z,77.02
2022-12-31T22:57:51.474Z,76.81
2022-12-31T23:00:26.546Z,76.93
2022-12-31T23:02:58.607Z,76.84
2022-12-31T23:05:34.008Z,76.79
2022-12-31T23:08:17.034Z,76.89
2022-12-31T23:10:59.106Z,76.84
2022-12-31T23:13:51.525Z,76.58
2022-12-31T23:16:42.435Z,76.69
2022-12-31T23:19:32.553Z,76.49
2022-12-31T23:22:21.977Z,76.70
2022-12-31T23:24:54.020Z,76.73
2022-12-31T23:27:26.185Z,76.98
2022-12-31T23:29:58.467Z,77.12
2022-12-31T23:32:30.542Z,77.21
2022-12-31T23:35:09.334Z,77.08
2022-12-31T23:37:36.599Z,77.25
2022-12-31T23:40:09.533Z,77.17
2022-12-31T23:42:42.528Z,77.25
2022-12-31T23:45:14.531Z,77.27
2022-12-31T23:47:46.845Z,77.30
2022-12-31T23:50:19.460Z,77.34
2022-12-31T23:52:51.503Z,77.50
2022-12-31T23:55:23.547Z,77.53
2022-12-31T23:57:56.003Z,77.62
